ADDS METAR Data INFO
IDs: Format: Raw Decoded Include TAF

Data at: 1951 UTC 14 Aug 2018

KFGX 141935Z AUTO 29004KT 10SM SCT050 29/18 A3003 RMK AO2 T02860175
KFGX 141915Z AUTO 29004KT 10SM CLR 29/18 A3004 RMK AO2 T02940182
KFGX 141855Z AUTO 32003KT 10SM CLR 29/16 A3005 RMK AO2 T02880164
KFGX 141835Z AUTO 32003KT 10SM CLR 29/17 A3005 RMK AO2 T02850168
KFGX 141815Z AUTO 25005KT 10SM CLR 29/17 A3005 RMK AO2 T02880173
KFGX 141755Z AUTO 26004KT 10SM CLR 29/18 A3006 RMK AO2 T02890184 10289 20185
KFGX 141735Z AUTO 26003KT 10SM CLR 28/17 A3007 RMK AO2 T02830173
KFGX 141715Z AUTO 27005KT 10SM CLR 28/17 A3007 RMK AO2 T02830173
KFGX 141655Z AUTO 25005KT 10SM CLR 28/17 A3007 RMK AO2 T02800170
KFGX 141635Z AUTO 00000KT 10SM SCT038 27/17 A3007 RMK AO2 T02730171
KFGX 141615Z AUTO 33003KT 10SM BKN038 28/18 A3008 RMK AO2 T02750181
KFGX 141555Z AUTO 00000KT 10SM SCT034 27/18 A3008 RMK AO2 T02650177
KFGX 141535Z AUTO 00000KT 10SM CLR 27/19 A3008 RMK AO2 T02710186
KFGX 141515Z AUTO 00000KT 10SM CLR 27/19 A3008 RMK AO2 T02650186
KFGX 141455Z AUTO 00000KT 10SM CLR 26/18 A3008 RMK AO2 T02620184
KFGX 141435Z AUTO 28003KT 10SM CLR 26/20 A3008 RMK AO2 T02560197
KFGX 141415Z AUTO 00000KT 10SM CLR 25/20 A3008 RMK AO2 T02480196
KFGX 141355Z AUTO 00000KT 10SM CLR 24/21 A3008 RMK AO2 T02420208
KFGX 141335Z AUTO 00000KT 10SM CLR 24/21 A3007 RMK AO2 T02350209
KFGX 141315Z AUTO 00000KT 10SM CLR 23/20 A3007 RMK AO2 T02260203
KFGX 141255Z AUTO 00000KT 10SM CLR 22/20 A3007 RMK AO2 T02160204
KFGX 141235Z AUTO 00000KT 10SM CLR 21/20 A3007 RMK AO2 T02080196
KFGX 141215Z AUTO 00000KT 7SM CLR 20/19 A3006 RMK AO2 T01950193
KFGX 141155Z AUTO 00000KT 7SM CLR 18/18 A3006 RMK AO2 T01830183 10193 20170
KFGX 141135Z AUTO 00000KT 4SM BR CLR 18/18 A3006 RMK AO2 T01760176
KFGX 141115Z AUTO 00000KT 3SM BR CLR 17/17 A3006 RMK AO2 T01720172
KFGX 141055Z AUTO 00000KT 4SM BR CLR 17/17 A3006 RMK AO2 T01730173
KFGX 141035Z AUTO 00000KT 7SM CLR 18/18 A3005 RMK AO2 T01750175
KFGX 141015Z AUTO 00000KT 7SM CLR 18/18 A3004 RMK AO2 T01770177
KFGX 140955Z AUTO 00000KT 4SM BR CLR 18/18 A3004 RMK AO2 T01770177
KFGX 140935Z AUTO 00000KT 2 1/2SM BR CLR 18/18 A3004 RMK AO2 VIS 1 1/2V4 T01760176
KFGX 140915Z AUTO 00000KT 2 1/2SM BR CLR 18/18 A3004 RMK AO2 VIS 1 1/2V4 T01770177
KFGX 140855Z AUTO 00000KT 4SM BR CLR 18/18 A3004 RMK AO2 T01830183
KFGX 140835Z AUTO 00000KT 4SM BR CLR 18/18 A3003 RMK AO2 T01810181
KFGX 140815Z AUTO 00000KT 2 1/2SM BR CLR 18/18 A3004 RMK AO2 VIS 3/4V5 T01790179
KFGX 140755Z AUTO 00000KT 7SM CLR 18/18 A3004 RMK AO2 T01840184
KFGX 140735Z AUTO 00000KT 7SM CLR 18/18 A3004 RMK AO2 T01830183
KFGX 140715Z AUTO 00000KT 10SM CLR 19/19 A3004 RMK AO2 T01900190
KFGX 140655Z AUTO 00000KT 10SM CLR 19/19 A3004 RMK AO2 T01890189
KFGX 140635Z AUTO 00000KT 10SM CLR 19/19 A3004 RMK AO2 T01860186
KFGX 140615Z AUTO 00000KT 10SM CLR 19/19 A3005 RMK AO2 T01930190
KFGX 140555Z AUTO 00000KT 10SM CLR 19/19 A3005 RMK AO2 T01910191 10256 20187 402850164
KFGX 140535Z AUTO 24003KT 10SM CLR 19/19 A3005 RMK AO2 T01880188
KFGX 140515Z AUTO 26004KT 10SM CLR 19/19 A3005 RMK AO2 T01910191
KFGX 140455Z AUTO 24003KT 10SM CLR 19/19 A3005 RMK AO2 T01920192
KFGX 140435Z AUTO 24003KT 7SM CLR 20/20 A3006 RMK AO2 T01950195
KFGX 140415Z AUTO 00000KT 10SM CLR 21/20 A3005 RMK AO2 T02050198
KFGX 140355Z AUTO 00000KT 10SM CLR 21/20 A3005 RMK AO2 T02060197
KFGX 140335Z AUTO 00000KT 10SM CLR 21/20 A3005 RMK AO2 T02060195
KFGX 140315Z AUTO 00000KT 10SM CLR 22/19 A3005 RMK AO2 T02160190
KFGX 140255Z AUTO 00000KT 10SM CLR 21/20 A3005 RMK AO2 T02090195
KFGX 140235Z AUTO 00000KT 10SM CLR 22/19 A3006 RMK AO2 T02200191
KFGX 140215Z AUTO 00000KT 10SM CLR 23/19 A3006 RMK AO2 T02260190
KFGX 140155Z AUTO 00000KT 10SM CLR 23/19 A3005 RMK AO2 T02320191
KFGX 140135Z AUTO 00000KT 10SM CLR 23/19 A3004 RMK AO2 T02330191
KFGX 140115Z AUTO 00000KT 10SM CLR 23/19 A3004 RMK AO2 T02340186
KFGX 140055Z AUTO 00000KT 10SM CLR 24/18 A3004 RMK AO2 T02410183
KFGX 140035Z AUTO 04003KT 10SM CLR 24/19 A3004 RMK AO2 T02440187
KFGX 140015Z AUTO 05003KT 10SM CLR 25/19 A3003 RMK AO2 T02510185
KFGX 132355Z AUTO 03003KT 10SM CLR 26/18 A3003 RMK AO2 T02560183 10285 20256
KFGX 132335Z AUTO 00000KT 10SM CLR 26/19 A3003 RMK AO2 T02600191
KFGX 132315Z AUTO 03004KT 10SM SCT047 27/19 A3003 RMK AO2 T02660187
KFGX 132255Z AUTO 00000KT 10SM SCT047 27/20 A3003 RMK AO2 T02680195
KFGX 132235Z AUTO 02003KT 10SM SCT046 26/19 A3003 RMK AO2 T02620188
KFGX 132215Z AUTO 05003KT 10SM CLR 27/19 A3003 RMK AO2 T02660185
KFGX 132155Z AUTO 05003KT 10SM SCT048 SCT065 26/19 A3003 RMK AO2 T02640188
KFGX 132135Z AUTO 09005KT 10SM SCT048 26/19 A3003 RMK AO2 T02640187
KFGX 132115Z AUTO 07005KT 10SM SCT047 SCT050 SCT065 26/19 A3004 RMK AO2 T02620187
KFGX 132055Z AUTO 01006KT 10SM SCT047 SCT065 28/17 A3004 RMK AO2 T02790174
KFGX 132035Z AUTO 36006KT 10SM BKN047 BKN050 28/18 A3004 RMK AO2 T02810176
KFGX 132015Z AUTO 29005KT 10SM SCT047 SCT085 27/18 A3005 RMK AO2 T02730177
KFGX 131955Z AUTO 31006KT 10SM SCT045 BKN050 BKN085 28/18 A3005 RMK AO2 T02810176
KFGX 131935Z AUTO 31004KT 10SM SCT045 SCT055 SCT065 27/17 A3006 RMK AO2 T02700170
KFGX 131915Z AUTO 29004KT 10SM SCT043 SCT065 28/18 A3007 RMK AO2 T02800178
KFGX 131855Z AUTO 30003KT 10SM SCT041 SCT049 28/17 A3007 RMK AO2 T02750171
KFGX 131835Z AUTO 36004KT 10SM SCT041 SCT049 SCT060 26/18 A3008 RMK AO2 T02630177
KFGX 131815Z AUTO 00000KT 10SM SCT039 27/17 A3008 RMK AO2 T02700172
KFGX 131755Z AUTO 00000KT 10SM SCT039 SCT075 26/18 A3009 RMK AO2 T02590176 10274 20175
KFGX 131735Z AUTO 00000KT 10SM SCT035 SCT075 27/17 A3010 RMK AO2 T02660171
KFGX 131715Z AUTO 35004KT 10SM SCT035 26/18 A3010 RMK AO2 T02580180
KFGX 131655Z AUTO 33003KT 10SM CLR 27/19 A3010 RMK AO2 T02720185
KFGX 131635Z AUTO 30004KT 10SM CLR 27/18 A3011 RMK AO2 T02680175
KFGX 131615Z AUTO 03004KT 10SM CLR 26/18 A3011 RMK AO2 T02610175
KFGX 131555Z AUTO 35004KT 10SM CLR 26/18 A3012 RMK AO2 T02610177
KFGX 131535Z AUTO 00000KT 10SM CLR 25/18 A3012 RMK AO2 T02500175
KFGX 131515Z AUTO 31003KT 10SM CLR 25/17 A3012 RMK AO2 T02490167
KFGX 131455Z AUTO 00000KT 10SM CLR 25/17 A3012 RMK AO2 T02470171
KFGX 131435Z AUTO 00000KT 10SM CLR 25/18 A3012 RMK AO2 T02450182
KFGX 131415Z AUTO 00000KT 10SM CLR 23/19 A3013 RMK AO2 T02330186
KFGX 131355Z AUTO 00000KT 10SM CLR 23/20 A3012 RMK AO2 T02270195
KFGX 131335Z AUTO 00000KT 10SM CLR 22/19 A3013 RMK AO2 T02150192
KFGX 131315Z AUTO 00000KT 10SM CLR 21/19 A3014 RMK AO2 T02080192
KFGX 131255Z AUTO 00000KT 10SM SCT002 20/19 A3013 RMK AO2 T01960192
KFGX 131235Z AUTO 00000KT 10SM BKN002 19/19 A3013 RMK AO2 T01870187
KFGX 131215Z AUTO 00000KT 4SM BR SCT002 18/18 A3012 RMK AO2 T01790179
KFGX 131155Z AUTO 00000KT 7SM SCT002 18/18 A3012 RMK AO2 T01750175 10193 20164
KFGX 131135Z AUTO 00000KT 1/2SM FG BKN002 17/17 A3012 RMK AO2 T01710171
KFGX 131115Z AUTO 00000KT 10SM BKN002 17/17 A3010 RMK AO2 T01700170
KFGX 131055Z AUTO 00000KT M1/4SM FG OVC002 17/17 A3010 RMK AO2 T01660166
KFGX 131035Z AUTO 00000KT 10SM SCT002 17/17 A3010 RMK AO2 T01680168
KFGX 131015Z AUTO 00000KT 3SM BR SCT002 17/17 A3010 RMK AO2 T01710171
KFGX 130955Z AUTO 00000KT 7SM SCT002 17/17 A3009 RMK AO2 T01720172
KFGX 130935Z AUTO 00000KT 10SM CLR 18/18 A3009 RMK AO2 T01750175
KFGX 130915Z AUTO 00000KT 10SM CLR 18/18 A3009 RMK AO2 T01750175
KFGX 130855Z AUTO 00000KT 10SM CLR 18/18 A3009 RMK AO2 T01750175
KFGX 130835Z AUTO 00000KT 10SM CLR 18/18 A3009 RMK AO2 T01770177
KFGX 130815Z AUTO 00000KT 10SM CLR 18/18 A3008 RMK AO2 T01790179
KFGX 130755Z AUTO 00000KT 10SM CLR 18/18 A3008 RMK AO2 T01800180